Louisa, Kentucky
Current Conditions -  °F | °C
As of 12:51 AM on Tuesday 21 Oct 2014 (Local Time) from KHTS Reporting Station
Scattered Clouds Scattered Clouds  
Wind Chill: 51°   Ceiling: Unl
Heat Index: 51°   Visibility: 10mi
Dew Point: 48°   Wind: 6mph
Humidity: 89%   Direction: 190°S
Pressure: 29.91"   Gusts: NA
Location:  38.11°N, 82.6°W
Report Text: KHTS 210451Z 19005KT 10SM SCT120 11/09 A2991 RMK AO2 SLP126 T01060089 401500028
Loading
Personal Weather Stations






























Interactive Weather Map
Tropical Storm Tracking
New forecast layout! Learn more

10-Day Weather Forecast

Advertisements
Track Severe Weather on mobile